sensor_id;sensor_type;location;lat;lon;timestamp;P1;durP1;ratioP1;P2;durP2;ratioP2
2558;SDS011;1289;53.488;10.006;2023-05-14T00:02:06;14.60;;;13.30;;
2558;SDS011;1289;53.488;10.006;2023-05-14T00:04:32;14.67;;;13.17;;
2558;SDS011;1289;53.488;10.006;2023-05-14T00:06:59;13.97;;;12.60;;
2558;SDS011;1289;53.488;10.006;2023-05-14T00:09:27;11.90;;;10.87;;
2558;SDS011;1289;53.488;10.006;2023-05-14T00:11:54;11.70;;;10.60;;
2558;SDS011;1289;53.488;10.006;2023-05-14T00:14:20;15.13;;;11.30;;
2558;SDS011;1289;53.488;10.006;2023-05-14T00:16:47;10.87;;;9.30;;
2558;SDS011;1289;53.488;10.006;2023-05-14T00:19:14;11.23;;;10.23;;
2558;SDS011;1289;53.488;10.006;2023-05-14T00:21:40;11.87;;;10.77;;
2558;SDS011;1289;53.488;10.006;2023-05-14T00:24:10;11.90;;;10.80;;
2558;SDS011;1289;53.488;10.006;2023-05-14T00:26:38;16.43;;;10.60;;
2558;SDS011;1289;53.488;10.006;2023-05-14T00:29:04;14.53;;;10.90;;
2558;SDS011;1289;53.488;10.006;2023-05-14T00:31:31;12.33;;;11.23;;
2558;SDS011;1289;53.488;10.006;2023-05-14T00:33:57;12.43;;;11.20;;
2558;SDS011;1289;53.488;10.006;2023-05-14T00:36:24;13.60;;;12.30;;
2558;SDS011;1289;53.488;10.006;2023-05-14T00:38:50;11.20;;;10.30;;
2558;SDS011;1289;53.488;10.006;2023-05-14T00:41:17;13.47;;;12.17;;
2558;SDS011;1289;53.488;10.006;2023-05-14T00:43:45;13.20;;;10.30;;
2558;SDS011;1289;53.488;10.006;2023-05-14T00:46:12;13.73;;;12.30;;
2558;SDS011;1289;53.488;10.006;2023-05-14T00:48:39;12.27;;;11.27;;
2558;SDS011;1289;53.488;10.006;2023-05-14T00:51:06;12.83;;;11.73;;
2558;SDS011;1289;53.488;10.006;2023-05-14T00:53:33;12.03;;;10.93;;
2558;SDS011;1289;53.488;10.006;2023-05-14T00:56:00;11.43;;;10.43;;
2558;SDS011;1289;53.488;10.006;2023-05-14T00:58:27;11.30;;;10.27;;
2558;SDS011;1289;53.488;10.006;2023-05-14T01:00:55;13.23;;;12.00;;
2558;SDS011;1289;53.488;10.006;2023-05-14T01:03:21;13.03;;;11.83;;
2558;SDS011;1289;53.488;10.006;2023-05-14T01:05:51;11.33;;;10.33;;
2558;SDS011;1289;53.488;10.006;2023-05-14T01:08:23;12.50;;;11.30;;
2558;SDS011;1289;53.488;10.006;2023-05-14T01:10:56;11.60;;;10.60;;
2558;SDS011;1289;53.488;10.006;2023-05-14T01:13:26;12.03;;;10.97;;
2558;SDS011;1289;53.488;10.006;2023-05-14T01:16:00;12.67;;;11.47;;
2558;SDS011;1289;53.488;10.006;2023-05-14T01:18:29;13.03;;;11.80;;
2558;SDS011;1289;53.488;10.006;2023-05-14T01:20:57;11.30;;;10.30;;
2558;SDS011;1289;53.488;10.006;2023-05-14T01:23:25;12.60;;;11.30;;
2558;SDS011;1289;53.488;10.006;2023-05-14T01:25:52;11.60;;;10.50;;
2558;SDS011;1289;53.488;10.006;2023-05-14T01:28:19;11.00;;;10.00;;
2558;SDS011;1289;53.488;10.006;2023-05-14T01:30:52;12.00;;;10.80;;
2558;SDS011;1289;53.488;10.006;2023-05-14T01:33:21;11.73;;;10.63;;
2558;SDS011;1289;53.488;10.006;2023-05-14T01:35:51;10.93;;;9.80;;
2558;SDS011;1289;53.488;10.006;2023-05-14T01:38:18;11.23;;;10.13;;
2558;SDS011;1289;53.488;10.006;2023-05-14T01:40:47;10.93;;;9.97;;
2558;SDS011;1289;53.488;10.006;2023-05-14T01:43:14;10.77;;;9.87;;
2558;SDS011;1289;53.488;10.006;2023-05-14T01:45:42;11.40;;;10.40;;
2558;SDS011;1289;53.488;10.006;2023-05-14T01:48:09;12.33;;;11.10;;
2558;SDS011;1289;53.488;10.006;2023-05-14T01:50:36;12.00;;;10.80;;
2558;SDS011;1289;53.488;10.006;2023-05-14T01:53:02;11.17;;;10.27;;
2558;SDS011;1289;53.488;10.006;2023-05-14T01:55:29;11.83;;;10.63;;
2558;SDS011;1289;53.488;10.006;2023-05-14T01:57:57;12.00;;;10.90;;
2558;SDS011;1289;53.488;10.006;2023-05-14T02:00:24;11.67;;;10.47;;
2558;SDS011;1289;53.488;10.006;2023-05-14T02:02:50;11.20;;;10.20;;
2558;SDS011;1289;53.488;10.006;2023-05-14T02:05:17;12.50;;;11.20;;
2558;SDS011;1289;53.488;10.006;2023-05-14T02:07:44;11.20;;;10.10;;
2558;SDS011;1289;53.488;10.006;2023-05-14T02:10:11;10.93;;;10.03;;
2558;SDS011;1289;53.488;10.006;2023-05-14T02:12:38;11.40;;;10.40;;
2558;SDS011;1289;53.488;10.006;2023-05-14T02:15:07;13.67;;;9.97;;
2558;SDS011;1289;53.488;10.006;2023-05-14T02:17:35;11.77;;;10.70;;
2558;SDS011;1289;53.488;10.006;2023-05-14T02:20:01;11.10;;;10.20;;
2558;SDS011;1289;53.488;10.006;2023-05-14T02:22:28;9.47;;;8.63;;
2558;SDS011;1289;53.488;10.006;2023-05-14T02:24:55;11.20;;;10.00;;
2558;SDS011;1289;53.488;10.006;2023-05-14T02:27:22;11.60;;;10.60;;
2558;SDS011;1289;53.488;10.006;2023-05-14T02:29:48;11.50;;;10.50;;
2558;SDS011;1289;53.488;10.006;2023-05-14T02:32:16;11.30;;;10.37;;
2558;SDS011;1289;53.488;10.006;2023-05-14T02:34:43;11.03;;;10.13;;
2558;SDS011;1289;53.488;10.006;2023-05-14T02:37:10;10.77;;;9.87;;
2558;SDS011;1289;53.488;10.006;2023-05-14T02:39:36;12.10;;;9.77;;
2558;SDS011;1289;53.488;10.006;2023-05-14T02:42:03;11.27;;;9.90;;
2558;SDS011;1289;53.488;10.006;2023-05-14T02:44:30;10.90;;;9.73;;
2558;SDS011;1289;53.488;10.006;2023-05-14T02:46:56;12.00;;;10.83;;
2558;SDS011;1289;53.488;10.006;2023-05-14T02:49:24;11.20;;;10.20;;
2558;SDS011;1289;53.488;10.006;2023-05-14T02:51:51;11.73;;;10.63;;
2558;SDS011;1289;53.488;10.006;2023-05-14T02:54:18;10.77;;;9.77;;
2558;SDS011;1289;53.488;10.006;2023-05-14T02:56:45;10.37;;;9.47;;
2558;SDS011;1289;53.488;10.006;2023-05-14T02:59:12;11.37;;;10.40;;
2558;SDS011;1289;53.488;10.006;2023-05-14T03:01:39;11.83;;;10.83;;
2558;SDS011;1289;53.488;10.006;2023-05-14T03:04:05;10.80;;;9.80;;
2558;SDS011;1289;53.488;10.006;2023-05-14T03:06:34;12.07;;;10.97;;
2558;SDS011;1289;53.488;10.006;2023-05-14T03:09:00;11.67;;;10.57;;
2558;SDS011;1289;53.488;10.006;2023-05-14T03:11:27;11.80;;;10.70;;
2558;SDS011;1289;53.488;10.006;2023-05-14T03:13:54;10.27;;;9.50;;
2558;SDS011;1289;53.488;10.006;2023-05-14T03:16:20;12.47;;;10.20;;
2558;SDS011;1289;53.488;10.006;2023-05-14T03:18:48;11.57;;;10.50;;
2558;SDS011;1289;53.488;10.006;2023-05-14T03:21:14;12.63;;;11.50;;
2558;SDS011;1289;53.488;10.006;2023-05-14T03:23:43;12.67;;;11.50;;
2558;SDS011;1289;53.488;10.006;2023-05-14T03:26:09;12.63;;;11.43;;
2558;SDS011;1289;53.488;10.006;2023-05-14T03:28:36;13.07;;;11.97;;
2558;SDS011;1289;53.488;10.006;2023-05-14T03:31:02;11.87;;;10.80;;
2558;SDS011;1289;53.488;10.006;2023-05-14T03:33:29;12.30;;;11.00;;
2558;SDS011;1289;53.488;10.006;2023-05-14T03:35:56;11.50;;;10.50;;
2558;SDS011;1289;53.488;10.006;2023-05-14T03:38:22;12.53;;;11.43;;
2558;SDS011;1289;53.488;10.006;2023-05-14T03:40:50;12.53;;;11.53;;
2558;SDS011;1289;53.488;10.006;2023-05-14T03:43:17;12.70;;;11.57;;
2558;SDS011;1289;53.488;10.006;2023-05-14T03:45:44;12.93;;;11.70;;
2558;SDS011;1289;53.488;10.006;2023-05-14T03:48:11;11.73;;;10.70;;
2558;SDS011;1289;53.488;10.006;2023-05-14T03:50:37;12.57;;;11.47;;
2558;SDS011;1289;53.488;10.006;2023-05-14T03:53:04;12.93;;;11.83;;
2558;SDS011;1289;53.488;10.006;2023-05-14T03:55:31;14.00;;;11.40;;
2558;SDS011;1289;53.488;10.006;2023-05-14T03:57:59;12.27;;;11.17;;
2558;SDS011;1289;53.488;10.006;2023-05-14T04:00:26;13.10;;;11.80;;
2558;SDS011;1289;53.488;10.006;2023-05-14T04:02:52;14.20;;;12.90;;
2558;SDS011;1289;53.488;10.006;2023-05-14T04:05:21;13.00;;;11.80;;
2558;SDS011;1289;53.488;10.006;2023-05-14T04:07:48;12.30;;;11.20;;
2558;SDS011;1289;53.488;10.006;2023-05-14T04:10:18;12.43;;;11.33;;
2558;SDS011;1289;53.488;10.006;2023-05-14T04:12:45;13.57;;;12.33;;
2558;SDS011;1289;53.488;10.006;2023-05-14T04:15:13;13.73;;;12.20;;
2558;SDS011;1289;53.488;10.006;2023-05-14T04:17:41;12.53;;;11.33;;
2558;SDS011;1289;53.488;10.006;2023-05-14T04:20:08;14.23;;;12.77;;
2558;SDS011;1289;53.488;10.006;2023-05-14T04:22:35;12.90;;;11.53;;
2558;SDS011;1289;53.488;10.006;2023-05-14T04:25:01;13.60;;;12.23;;
2558;SDS011;1289;53.488;10.006;2023-05-14T04:27:28;13.00;;;11.90;;
2558;SDS011;1289;53.488;10.006;2023-05-14T04:29:55;12.20;;;11.20;;
2558;SDS011;1289;53.488;10.006;2023-05-14T04:32:23;13.57;;;12.30;;
2558;SDS011;1289;53.488;10.006;2023-05-14T04:34:50;12.30;;;11.20;;
2558;SDS011;1289;53.488;10.006;2023-05-14T04:37:16;13.30;;;12.10;;
2558;SDS011;1289;53.488;10.006;2023-05-14T04:39:43;13.40;;;12.20;;
2558;SDS011;1289;53.488;10.006;2023-05-14T04:42:10;13.33;;;12.13;;
2558;SDS011;1289;53.488;10.006;2023-05-14T04:44:36;13.73;;;12.47;;
2558;SDS011;1289;53.488;10.006;2023-05-14T04:47:03;13.87;;;12.53;;
2558;SDS011;1289;53.488;10.006;2023-05-14T04:49:32;13.97;;;12.60;;
2558;SDS011;1289;53.488;10.006;2023-05-14T04:51:59;14.63;;;13.13;;
2558;SDS011;1289;53.488;10.006;2023-05-14T04:54:26;13.17;;;12.07;;
2558;SDS011;1289;53.488;10.006;2023-05-14T04:56:52;12.93;;;11.63;;
2558;SDS011;1289;53.488;10.006;2023-05-14T04:59:19;13.20;;;12.00;;
2558;SDS011;1289;53.488;10.006;2023-05-14T05:01:46;13.20;;;12.03;;
2558;SDS011;1289;53.488;10.006;2023-05-14T05:04:13;12.83;;;11.73;;
2558;SDS011;1289;53.488;10.006;2023-05-14T05:06:40;13.67;;;12.47;;
2558;SDS011;1289;53.488;10.006;2023-05-14T05:09:07;13.33;;;12.20;;
2558;SDS011;1289;53.488;10.006;2023-05-14T05:11:34;12.37;;;11.27;;
2558;SDS011;1289;53.488;10.006;2023-05-14T05:14:00;13.20;;;11.87;;
2558;SDS011;1289;53.488;10.006;2023-05-14T05:16:27;12.27;;;11.20;;
2558;SDS011;1289;53.488;10.006;2023-05-14T05:18:53;12.50;;;11.17;;
2558;SDS011;1289;53.488;10.006;2023-05-14T05:21:20;12.30;;;11.10;;
2558;SDS011;1289;53.488;10.006;2023-05-14T05:23:48;12.70;;;11.50;;
2558;SDS011;1289;53.488;10.006;2023-05-14T05:26:14;12.50;;;11.20;;
2558;SDS011;1289;53.488;10.006;2023-05-14T05:28:41;12.97;;;11.77;;
2558;SDS011;1289;53.488;10.006;2023-05-14T05:31:08;11.73;;;10.57;;
2558;SDS011;1289;53.488;10.006;2023-05-14T05:33:34;12.10;;;11.10;;
2558;SDS011;1289;53.488;10.006;2023-05-14T05:36:01;12.17;;;11.07;;
2558;SDS011;1289;53.488;10.006;2023-05-14T05:38:28;11.23;;;10.23;;
2558;SDS011;1289;53.488;10.006;2023-05-14T05:40:55;11.33;;;10.33;;
2558;SDS011;1289;53.488;10.006;2023-05-14T05:43:22;11.33;;;10.23;;
2558;SDS011;1289;53.488;10.006;2023-05-14T05:45:49;12.40;;;11.30;;
2558;SDS011;1289;53.488;10.006;2023-05-14T05:48:15;11.73;;;10.63;;
2558;SDS011;1289;53.488;10.006;2023-05-14T05:50:42;12.13;;;11.03;;
2558;SDS011;1289;53.488;10.006;2023-05-14T05:53:11;13.10;;;12.00;;
2558;SDS011;1289;53.488;10.006;2023-05-14T05:55:39;12.57;;;11.47;;
2558;SDS011;1289;53.488;10.006;2023-05-14T05:58:07;11.33;;;10.33;;
2558;SDS011;1289;53.488;10.006;2023-05-14T06:00:33;11.73;;;10.73;;
2558;SDS011;1289;53.488;10.006;2023-05-14T06:03:00;11.90;;;10.87;;
2558;SDS011;1289;53.488;10.006;2023-05-14T06:05:26;11.93;;;10.83;;
2558;SDS011;1289;53.488;10.006;2023-05-14T06:07:53;11.30;;;10.27;;
2558;SDS011;1289;53.488;10.006;2023-05-14T06:10:19;11.87;;;10.73;;
2558;SDS011;1289;53.488;10.006;2023-05-14T06:12:46;12.83;;;11.67;;
2558;SDS011;1289;53.488;10.006;2023-05-14T06:15:14;11.40;;;10.40;;
2558;SDS011;1289;53.488;10.006;2023-05-14T06:17:41;10.87;;;10.07;;
2558;SDS011;1289;53.488;10.006;2023-05-14T06:20:08;14.03;;;11.87;;
2558;SDS011;1289;53.488;10.006;2023-05-14T06:22:35;11.10;;;9.67;;
2558;SDS011;1289;53.488;10.006;2023-05-14T06:25:02;10.20;;;9.27;;
2558;SDS011;1289;53.488;10.006;2023-05-14T06:27:28;10.67;;;9.40;;
2558;SDS011;1289;53.488;10.006;2023-05-14T06:29:55;11.93;;;10.90;;
2558;SDS011;1289;53.488;10.006;2023-05-14T06:32:23;11.10;;;10.20;;
2558;SDS011;1289;53.488;10.006;2023-05-14T06:34:49;10.10;;;9.30;;
2558;SDS011;1289;53.488;10.006;2023-05-14T06:37:16;11.53;;;10.53;;
2558;SDS011;1289;53.488;10.006;2023-05-14T06:39:42;11.43;;;10.17;;
2558;SDS011;1289;53.488;10.006;2023-05-14T06:42:14;10.17;;;9.17;;
2558;SDS011;1289;53.488;10.006;2023-05-14T06:44:40;13.10;;;8.93;;
2558;SDS011;1289;53.488;10.006;2023-05-14T06:47:07;10.83;;;9.83;;
2558;SDS011;1289;53.488;10.006;2023-05-14T06:49:35;11.00;;;9.23;;
2558;SDS011;1289;53.488;10.006;2023-05-14T06:52:01;15.03;;;9.87;;
2558;SDS011;1289;53.488;10.006;2023-05-14T06:54:28;9.80;;;8.93;;
2558;SDS011;1289;53.488;10.006;2023-05-14T06:56:55;11.03;;;9.00;;
2558;SDS011;1289;53.488;10.006;2023-05-14T06:59:22;10.40;;;9.43;;
2558;SDS011;1289;53.488;10.006;2023-05-14T07:01:48;9.30;;;8.60;;
2558;SDS011;1289;53.488;10.006;2023-05-14T07:04:15;9.37;;;8.53;;
2558;SDS011;1289;53.488;10.006;2023-05-14T07:06:43;10.30;;;9.50;;
2558;SDS011;1289;53.488;10.006;2023-05-14T07:09:10;9.90;;;9.00;;
2558;SDS011;1289;53.488;10.006;2023-05-14T07:11:37;9.53;;;8.70;;
2558;SDS011;1289;53.488;10.006;2023-05-14T07:14:03;12.07;;;8.93;;
2558;SDS011;1289;53.488;10.006;2023-05-14T07:16:30;8.53;;;7.87;;
2558;SDS011;1289;53.488;10.006;2023-05-14T07:18:57;8.63;;;7.93;;
2558;SDS011;1289;53.488;10.006;2023-05-14T07:21:23;9.67;;;8.77;;
2558;SDS011;1289;53.488;10.006;2023-05-14T07:23:51;8.80;;;8.10;;
2558;SDS011;1289;53.488;10.006;2023-05-14T07:26:18;7.03;;;6.43;;
2558;SDS011;1289;53.488;10.006;2023-05-14T07:28:45;8.37;;;7.70;;
2558;SDS011;1289;53.488;10.006;2023-05-14T07:31:12;7.33;;;6.83;;
2558;SDS011;1289;53.488;10.006;2023-05-14T07:33:38;7.47;;;6.87;;
2558;SDS011;1289;53.488;10.006;2023-05-14T07:36:05;11.10;;;7.40;;
2558;SDS011;1289;53.488;10.006;2023-05-14T07:38:32;7.80;;;7.00;;
2558;SDS011;1289;53.488;10.006;2023-05-14T07:41:00;8.07;;;7.47;;
2558;SDS011;1289;53.488;10.006;2023-05-14T07:43:27;7.23;;;6.53;;
2558;SDS011;1289;53.488;10.006;2023-05-14T07:45:54;8.50;;;7.30;;
2558;SDS011;1289;53.488;10.006;2023-05-14T07:48:21;7.33;;;6.83;;
2558;SDS011;1289;53.488;10.006;2023-05-14T07:50:48;8.00;;;7.30;;
2558;SDS011;1289;53.488;10.006;2023-05-14T07:53:15;7.87;;;7.17;;
2558;SDS011;1289;53.488;10.006;2023-05-14T07:55:43;7.00;;;6.50;;
2558;SDS011;1289;53.488;10.006;2023-05-14T07:58:12;7.33;;;6.73;;
2558;SDS011;1289;53.488;10.006;2023-05-14T08:00:38;7.43;;;6.83;;
2558;SDS011;1289;53.488;10.006;2023-05-14T08:03:05;6.67;;;6.17;;
2558;SDS011;1289;53.488;10.006;2023-05-14T08:05:32;6.80;;;6.30;;
2558;SDS011;1289;53.488;10.006;2023-05-14T08:07:58;6.70;;;6.20;;
2558;SDS011;1289;53.488;10.006;2023-05-14T08:10:25;7.43;;;6.73;;
2558;SDS011;1289;53.488;10.006;2023-05-14T08:12:52;6.20;;;5.70;;
2558;SDS011;1289;53.488;10.006;2023-05-14T08:15:20;7.30;;;6.70;;
2558;SDS011;1289;53.488;10.006;2023-05-14T08:17:46;7.10;;;6.60;;
2558;SDS011;1289;53.488;10.006;2023-05-14T08:20:13;6.73;;;6.13;;
2558;SDS011;1289;53.488;10.006;2023-05-14T08:22:39;6.80;;;6.30;;
2558;SDS011;1289;53.488;10.006;2023-05-14T08:25:06;6.93;;;6.43;;
2558;SDS011;1289;53.488;10.006;2023-05-14T08:27:33;7.07;;;6.37;;
2558;SDS011;1289;53.488;10.006;2023-05-14T08:30:00;8.00;;;7.20;;
2558;SDS011;1289;53.488;10.006;2023-05-14T08:32:28;7.40;;;6.80;;
2558;SDS011;1289;53.488;10.006;2023-05-14T08:34:54;7.50;;;6.83;;
2558;SDS011;1289;53.488;10.006;2023-05-14T08:37:21;6.73;;;6.23;;
2558;SDS011;1289;53.488;10.006;2023-05-14T08:39:48;6.83;;;6.07;;
2558;SDS011;1289;53.488;10.006;2023-05-14T08:42:14;6.63;;;6.03;;
2558;SDS011;1289;53.488;10.006;2023-05-14T08:44:46;7.00;;;6.40;;
2558;SDS011;1289;53.488;10.006;2023-05-14T08:47:14;7.87;;;6.20;;
2558;SDS011;1289;53.488;10.006;2023-05-14T08:49:42;6.77;;;6.27;;
2558;SDS011;1289;53.488;10.006;2023-05-14T08:52:11;6.77;;;6.00;;
2558;SDS011;1289;53.488;10.006;2023-05-14T08:54:38;7.00;;;6.40;;
2558;SDS011;1289;53.488;10.006;2023-05-14T08:57:05;6.70;;;6.10;;
2558;SDS011;1289;53.488;10.006;2023-05-14T08:59:34;6.27;;;5.73;;
2558;SDS011;1289;53.488;10.006;2023-05-14T09:02:01;6.23;;;5.73;;
2558;SDS011;1289;53.488;10.006;2023-05-14T09:04:29;6.00;;;5.57;;
2558;SDS011;1289;53.488;10.006;2023-05-14T09:06:58;7.80;;;5.57;;
2558;SDS011;1289;53.488;10.006;2023-05-14T09:09:26;6.10;;;5.57;;
2558;SDS011;1289;53.488;10.006;2023-05-14T09:11:52;5.50;;;5.10;;
2558;SDS011;1289;53.488;10.006;2023-05-14T09:14:21;6.67;;;5.40;;
2558;SDS011;1289;53.488;10.006;2023-05-14T09:16:48;5.70;;;5.30;;
2558;SDS011;1289;53.488;10.006;2023-05-14T09:19:16;5.70;;;5.30;;
2558;SDS011;1289;53.488;10.006;2023-05-14T09:21:44;8.03;;;6.20;;
2558;SDS011;1289;53.488;10.006;2023-05-14T09:24:18;6.30;;;5.77;;
2558;SDS011;1289;53.488;10.006;2023-05-14T09:26:48;5.50;;;5.10;;
2558;SDS011;1289;53.488;10.006;2023-05-14T09:29:15;5.67;;;5.17;;
2558;SDS011;1289;53.488;10.006;2023-05-14T09:31:42;5.50;;;5.10;;
2558;SDS011;1289;53.488;10.006;2023-05-14T09:34:08;5.60;;;5.20;;
2558;SDS011;1289;53.488;10.006;2023-05-14T09:36:35;6.03;;;5.50;;
2558;SDS011;1289;53.488;10.006;2023-05-14T09:39:02;6.30;;;5.80;;
2558;SDS011;1289;53.488;10.006;2023-05-14T09:41:36;6.87;;;6.37;;
2558;SDS011;1289;53.488;10.006;2023-05-14T09:44:02;6.30;;;5.70;;
2558;SDS011;1289;53.488;10.006;2023-05-14T09:46:29;6.00;;;5.50;;
2558;SDS011;1289;53.488;10.006;2023-05-14T09:48:56;6.00;;;5.50;;
2558;SDS011;1289;53.488;10.006;2023-05-14T09:51:23;6.00;;;5.60;;
2558;SDS011;1289;53.488;10.006;2023-05-14T09:53:49;5.73;;;5.23;;
2558;SDS011;1289;53.488;10.006;2023-05-14T09:56:18;5.80;;;5.40;;
2558;SDS011;1289;53.488;10.006;2023-05-14T09:58:47;5.47;;;5.07;;
2558;SDS011;1289;53.488;10.006;2023-05-14T10:01:13;10.03;;;5.53;;
2558;SDS011;1289;53.488;10.006;2023-05-14T10:03:43;7.23;;;5.77;;
2558;SDS011;1289;53.488;10.006;2023-05-14T10:06:10;5.40;;;5.00;;
2558;SDS011;1289;53.488;10.006;2023-05-14T10:08:40;5.60;;;5.10;;
2558;SDS011;1289;53.488;10.006;2023-05-14T10:11:10;5.70;;;5.13;;
2558;SDS011;1289;53.488;10.006;2023-05-14T10:13:40;5.93;;;5.07;;
2558;SDS011;1289;53.488;10.006;2023-05-14T10:16:10;5.20;;;4.80;;
2558;SDS011;1289;53.488;10.006;2023-05-14T10:18:39;5.67;;;5.17;;
2558;SDS011;1289;53.488;10.006;2023-05-14T10:21:07;5.07;;;4.63;;
2558;SDS011;1289;53.488;10.006;2023-05-14T10:23:33;5.43;;;5.03;;
2558;SDS011;1289;53.488;10.006;2023-05-14T10:26:02;5.60;;;5.10;;
2558;SDS011;1289;53.488;10.006;2023-05-14T10:28:29;5.57;;;5.07;;
2558;SDS011;1289;53.488;10.006;2023-05-14T10:30:56;5.60;;;5.20;;
2558;SDS011;1289;53.488;10.006;2023-05-14T10:33:23;5.30;;;4.80;;
2558;SDS011;1289;53.488;10.006;2023-05-14T10:35:57;6.03;;;5.53;;
2558;SDS011;1289;53.488;10.006;2023-05-14T10:38:26;4.80;;;4.50;;
2558;SDS011;1289;53.488;10.006;2023-05-14T10:40:57;5.90;;;5.40;;
2558;SDS011;1289;53.488;10.006;2023-05-14T10:43:25;5.57;;;5.07;;
2558;SDS011;1289;53.488;10.006;2023-05-14T10:45:53;6.50;;;5.90;;
2558;SDS011;1289;53.488;10.006;2023-05-14T10:48:19;7.10;;;5.23;;
2558;SDS011;1289;53.488;10.006;2023-05-14T10:50:47;5.87;;;5.47;;
2558;SDS011;1289;53.488;10.006;2023-05-14T10:53:16;6.03;;;5.60;;
2558;SDS011;1289;53.488;10.006;2023-05-14T10:55:42;7.13;;;5.60;;
2558;SDS011;1289;53.488;10.006;2023-05-14T10:58:10;6.57;;;6.03;;
2558;SDS011;1289;53.488;10.006;2023-05-14T11:00:36;6.47;;;5.97;;
2558;SDS011;1289;53.488;10.006;2023-05-14T11:03:04;6.70;;;6.13;;
2558;SDS011;1289;53.488;10.006;2023-05-14T11:05:31;6.03;;;5.53;;
2558;SDS011;1289;53.488;10.006;2023-05-14T11:08:03;6.00;;;5.40;;
2558;SDS011;1289;53.488;10.006;2023-05-14T11:10:31;5.83;;;5.27;;
2558;SDS011;1289;53.488;10.006;2023-05-14T11:12:59;6.03;;;5.53;;
2558;SDS011;1289;53.488;10.006;2023-05-14T11:15:26;5.70;;;5.30;;
2558;SDS011;1289;53.488;10.006;2023-05-14T11:17:53;5.53;;;5.17;;
2558;SDS011;1289;53.488;10.006;2023-05-14T11:20:19;6.00;;;5.50;;
2558;SDS011;1289;53.488;10.006;2023-05-14T11:22:46;6.70;;;6.10;;
2558;SDS011;1289;53.488;10.006;2023-05-14T11:25:16;7.03;;;6.43;;
2558;SDS011;1289;53.488;10.006;2023-05-14T11:27:44;5.83;;;5.33;;
2558;SDS011;1289;53.488;10.006;2023-05-14T11:30:12;6.53;;;5.90;;
2558;SDS011;1289;53.488;10.006;2023-05-14T11:32:40;6.00;;;5.43;;
2558;SDS011;1289;53.488;10.006;2023-05-14T11:35:07;5.57;;;5.07;;
2558;SDS011;1289;53.488;10.006;2023-05-14T11:37:34;5.50;;;5.00;;
2558;SDS011;1289;53.488;10.006;2023-05-14T11:40:00;5.40;;;5.00;;
2558;SDS011;1289;53.488;10.006;2023-05-14T11:42:29;5.60;;;5.20;;
2558;SDS011;1289;53.488;10.006;2023-05-14T11:44:56;6.20;;;5.60;;
2558;SDS011;1289;53.488;10.006;2023-05-14T11:47:22;5.83;;;5.43;;
2558;SDS011;1289;53.488;10.006;2023-05-14T11:49:49;6.17;;;5.77;;
2558;SDS011;1289;53.488;10.006;2023-05-14T11:52:15;7.13;;;6.30;;
2558;SDS011;1289;53.488;10.006;2023-05-14T11:54:46;6.27;;;5.63;;
2558;SDS011;1289;53.488;10.006;2023-05-14T11:57:15;5.97;;;5.47;;
2558;SDS011;1289;53.488;10.006;2023-05-14T11:59:44;8.50;;;6.30;;
2558;SDS011;1289;53.488;10.006;2023-05-14T12:02:13;6.50;;;5.97;;
2558;SDS011;1289;53.488;10.006;2023-05-14T12:04:41;7.07;;;6.57;;
2558;SDS011;1289;53.488;10.006;2023-05-14T12:07:08;8.97;;;8.17;;
2558;SDS011;1289;53.488;10.006;2023-05-14T12:09:36;6.53;;;5.93;;
2558;SDS011;1289;53.488;10.006;2023-05-14T12:12:07;7.00;;;6.40;;
2558;SDS011;1289;53.488;10.006;2023-05-14T12:14:35;5.70;;;5.30;;
2558;SDS011;1289;53.488;10.006;2023-05-14T12:17:04;7.47;;;5.47;;
2558;SDS011;1289;53.488;10.006;2023-05-14T12:19:38;6.23;;;5.73;;
2558;SDS011;1289;53.488;10.006;2023-05-14T12:22:06;5.97;;;5.47;;
2558;SDS011;1289;53.488;10.006;2023-05-14T12:24:33;6.07;;;5.57;;
2558;SDS011;1289;53.488;10.006;2023-05-14T12:27:00;6.17;;;5.67;;
2558;SDS011;1289;53.488;10.006;2023-05-14T12:29:27;5.60;;;5.10;;
2558;SDS011;1289;53.488;10.006;2023-05-14T12:31:55;5.50;;;5.00;;
2558;SDS011;1289;53.488;10.006;2023-05-14T12:34:23;5.90;;;5.50;;
2558;SDS011;1289;53.488;10.006;2023-05-14T12:36:50;5.60;;;5.20;;
2558;SDS011;1289;53.488;10.006;2023-05-14T12:39:17;6.70;;;6.10;;
2558;SDS011;1289;53.488;10.006;2023-05-14T12:41:43;6.30;;;5.70;;
2558;SDS011;1289;53.488;10.006;2023-05-14T12:44:10;6.70;;;6.00;;
2558;SDS011;1289;53.488;10.006;2023-05-14T12:46:36;7.33;;;6.50;;
2558;SDS011;1289;53.488;10.006;2023-05-14T12:49:03;6.43;;;5.93;;
2558;SDS011;1289;53.488;10.006;2023-05-14T12:51:32;6.57;;;5.97;;
2558;SDS011;1289;53.488;10.006;2023-05-14T12:53:59;6.33;;;5.73;;
2558;SDS011;1289;53.488;10.006;2023-05-14T12:56:26;5.93;;;5.47;;
2558;SDS011;1289;53.488;10.006;2023-05-14T12:58:53;6.53;;;5.93;;
2558;SDS011;1289;53.488;10.006;2023-05-14T13:01:20;6.30;;;5.80;;
2558;SDS011;1289;53.488;10.006;2023-05-14T13:03:47;7.70;;;6.67;;
2558;SDS011;1289;53.488;10.006;2023-05-14T13:06:14;7.20;;;6.60;;
2558;SDS011;1289;53.488;10.006;2023-05-14T13:08:42;6.80;;;6.10;;
2558;SDS011;1289;53.488;10.006;2023-05-14T13:11:08;6.57;;;5.97;;
2558;SDS011;1289;53.488;10.006;2023-05-14T13:13:35;6.97;;;6.37;;
2558;SDS011;1289;53.488;10.006;2023-05-14T13:16:01;6.13;;;5.67;;
2558;SDS011;1289;53.488;10.006;2023-05-14T13:18:28;6.57;;;6.00;;
2558;SDS011;1289;53.488;10.006;2023-05-14T13:20:55;6.77;;;6.20;;
2558;SDS011;1289;53.488;10.006;2023-05-14T13:23:21;7.40;;;5.87;;
2558;SDS011;1289;53.488;10.006;2023-05-14T13:25:49;6.30;;;5.80;;
2558;SDS011;1289;53.488;10.006;2023-05-14T13:28:19;6.83;;;6.13;;
2558;SDS011;1289;53.488;10.006;2023-05-14T13:33:32;6.60;;;6.07;;
2558;SDS011;1289;53.488;10.006;2023-05-14T13:35:59;6.50;;;6.00;;
2558;SDS011;1289;53.488;10.006;2023-05-14T13:38:26;6.63;;;6.00;;
2558;SDS011;1289;53.488;10.006;2023-05-14T13:40:54;7.60;;;6.90;;
2558;SDS011;1289;53.488;10.006;2023-05-14T13:43:26;7.17;;;6.60;;
2558;SDS011;1289;53.488;10.006;2023-05-14T13:45:53;6.13;;;5.53;;
2558;SDS011;1289;53.488;10.006;2023-05-14T13:48:19;5.93;;;5.40;;
2558;SDS011;1289;53.488;10.006;2023-05-14T13:50:46;6.00;;;5.50;;
2558;SDS011;1289;53.488;10.006;2023-05-14T13:53:12;5.87;;;5.37;;
2558;SDS011;1289;53.488;10.006;2023-05-14T13:55:39;7.87;;;5.63;;
2558;SDS011;1289;53.488;10.006;2023-05-14T13:58:07;5.37;;;4.97;;
2558;SDS011;1289;53.488;10.006;2023-05-14T14:00:34;6.00;;;5.50;;
2558;SDS011;1289;53.488;10.006;2023-05-14T14:03:01;6.07;;;5.63;;
2558;SDS011;1289;53.488;10.006;2023-05-14T14:05:28;5.80;;;5.40;;
2558;SDS011;1289;53.488;10.006;2023-05-14T14:07:55;5.33;;;4.93;;
2558;SDS011;1289;53.488;10.006;2023-05-14T14:10:22;6.60;;;6.20;;
2558;SDS011;1289;53.488;10.006;2023-05-14T14:12:48;5.63;;;5.13;;
2558;SDS011;1289;53.488;10.006;2023-05-14T14:15:17;7.53;;;6.80;;
2558;SDS011;1289;53.488;10.006;2023-05-14T14:17:43;6.00;;;5.50;;
2558;SDS011;1289;53.488;10.006;2023-05-14T14:20:10;8.27;;;5.83;;
2558;SDS011;1289;53.488;10.006;2023-05-14T14:22:37;5.93;;;5.37;;
2558;SDS011;1289;53.488;10.006;2023-05-14T14:25:04;6.20;;;5.60;;
2558;SDS011;1289;53.488;10.006;2023-05-14T14:27:32;5.80;;;5.40;;
2558;SDS011;1289;53.488;10.006;2023-05-14T14:30:02;5.63;;;5.13;;
2558;SDS011;1289;53.488;10.006;2023-05-14T14:32:31;5.87;;;5.37;;
2558;SDS011;1289;53.488;10.006;2023-05-14T14:34:58;5.90;;;5.47;;
2558;SDS011;1289;53.488;10.006;2023-05-14T14:37:25;6.00;;;5.50;;
2558;SDS011;1289;53.488;10.006;2023-05-14T14:39:51;6.00;;;5.47;;
2558;SDS011;1289;53.488;10.006;2023-05-14T14:42:18;5.70;;;5.30;;
2558;SDS011;1289;53.488;10.006;2023-05-14T14:44:44;6.87;;;5.33;;
2558;SDS011;1289;53.488;10.006;2023-05-14T14:47:11;6.27;;;5.67;;
2558;SDS011;1289;53.488;10.006;2023-05-14T14:49:39;7.13;;;6.53;;
2558;SDS011;1289;53.488;10.006;2023-05-14T14:52:05;6.20;;;5.80;;
2558;SDS011;1289;53.488;10.006;2023-05-14T14:54:32;6.00;;;5.50;;